Terminal Aerodrome Forecast
Issued by NWS

Home | Current Version | Previous Version | Text Only | Print | Product List | Glossary On
Versions: 1 2 3 4 5 6 7 8 9 10 11 12 13 14 15 16 17 18 19
000
FTUS43 KILX 170524
TAFBMI
TAF
KBMI 170524Z 1706/1806 19010KT P6SM VCSH SCT040 BKN090
      TEMPO 1707/1709 BKN025
     FM170900 20009KT P6SM VCSH BKN015
     FM171400 23011KT P6SM BKN015
     FM171700 24014G21KT P6SM BKN040
     FM180000 26009KT P6SM SCT200=

USA.gov is the U.S. government's official web portal to all federal, state and local government web resources and services.